createdAt,value
2023-04-14T00:01:57.932Z,8.61
2023-04-14T00:04:24.914Z,8.54
2023-04-14T00:06:52.778Z,8.51
2023-04-14T00:09:19.616Z,8.48
2023-04-14T00:11:46.579Z,8.39
2023-04-14T00:14:13.520Z,8.31
2023-04-14T00:16:40.902Z,8.25
2023-04-14T00:19:08.209Z,8.21
2023-04-14T00:21:35.081Z,8.21
2023-04-14T00:24:01.932Z,8.23
2023-04-14T00:26:29.078Z,8.27
2023-04-14T00:28:56.044Z,8.30
2023-04-14T00:31:24.975Z,8.29
2023-04-14T00:33:52.513Z,8.26
2023-04-14T00:36:19.976Z,8.22
2023-04-14T00:38:47.110Z,8.20
2023-04-14T00:41:14.279Z,8.19
2023-04-14T00:43:41.844Z,8.16
2023-04-14T00:46:09.439Z,8.14
2023-04-14T00:48:37.220Z,8.13
2023-04-14T00:51:04.747Z,8.08
2023-04-14T00:53:32.974Z,8.06
2023-04-14T00:56:04.001Z,8.06
2023-04-14T00:58:31.887Z,8.06
2023-04-14T01:00:59.155Z,8.05
2023-04-14T01:03:26.714Z,8.02
2023-04-14T01:05:53.838Z,7.95
2023-04-14T01:08:22.036Z,7.90
2023-04-14T01:11:20.400Z,7.89
2023-04-14T01:14:03.908Z,7.87
2023-04-14T01:16:37.479Z,7.86
2023-04-14T01:19:29.555Z,7.80
2023-04-14T01:22:01.960Z,7.76
2023-04-14T01:25:01.363Z,7.75
2023-04-14T01:28:07.326Z,7.73
2023-04-14T01:30:43.781Z,7.71
2023-04-14T01:33:19.136Z,7.70
2023-04-14T01:35:52.710Z,7.72
2023-04-14T01:38:25.771Z,7.72
2023-04-14T01:40:57.986Z,7.73
2023-04-14T01:43:28.892Z,7.75
2023-04-14T01:46:01.001Z,7.79
2023-04-14T01:48:29.320Z,7.78
2023-04-14T01:50:58.879Z,7.76
2023-04-14T01:53:30.009Z,7.75
2023-04-14T01:55:59.744Z,7.72
2023-04-14T01:58:32.675Z,7.72
2023-04-14T02:01:01.063Z,7.68
2023-04-14T02:03:30.085Z,7.65
2023-04-14T02:05:57.734Z,7.69
2023-04-14T02:08:25.793Z,7.74
2023-04-14T02:10:54.773Z,7.79
2023-04-14T02:13:27.541Z,7.80
2023-04-14T02:15:56.470Z,7.79
2023-04-14T02:18:23.870Z,7.78
2023-04-14T02:20:54.035Z,7.77
2023-04-14T02:23:22.285Z,7.77
2023-04-14T02:26:05.135Z,7.80
2023-04-14T02:28:36.856Z,7.78
2023-04-14T02:31:24.614Z,7.75
2023-04-14T02:33:57.106Z,7.69
2023-04-14T02:36:33.482Z,7.67
2023-04-14T02:39:12.250Z,7.65
2023-04-14T02:41:42.389Z,7.62
2023-04-14T02:44:23.867Z,7.62
2023-04-14T02:47:07.591Z,7.56
2023-04-14T02:49:43.784Z,7.53
2023-04-14T02:52:14.287Z,7.47
2023-04-14T02:54:43.874Z,7.46
2023-04-14T02:57:13.069Z,7.44
2023-04-14T02:59:46.202Z,7.41
2023-04-14T03:02:14.377Z,7.42
2023-04-14T03:04:45.902Z,7.42
2023-04-14T03:07:47.889Z,7.37
2023-04-14T03:10:17.891Z,7.34
2023-04-14T03:12:47.309Z,7.32
2023-04-14T03:15:16.409Z,7.33
2023-04-14T03:17:48.091Z,7.33
2023-04-14T03:20:20.084Z,7.30
2023-04-14T03:22:58.209Z,7.30
2023-04-14T03:25:28.308Z,7.28
2023-04-14T03:28:02.057Z,7.25
2023-04-14T03:30:32.803Z,7.22
2023-04-14T03:33:07.468Z,7.22
2023-04-14T03:35:37.205Z,7.25
2023-04-14T03:38:10.104Z,7.28
2023-04-14T03:40:41.004Z,7.24
2023-04-14T03:43:10.523Z,7.18
2023-04-14T03:45:40.725Z,7.16
2023-04-14T03:48:12.597Z,7.13
2023-04-14T03:50:46.732Z,7.09
2023-04-14T03:53:16.456Z,7.00
2023-04-14T03:55:46.845Z,6.92
2023-04-14T03:58:16.132Z,6.93
2023-04-14T04:00:45.292Z,6.95
2023-04-14T04:03:15.918Z,6.96
2023-04-14T04:05:45.175Z,6.91
2023-04-14T04:08:13.390Z,6.90
2023-04-14T04:10:42.857Z,6.89
2023-04-14T04:13:16.440Z,6.91
2023-04-14T04:15:46.575Z,6.89
2023-04-14T04:18:17.261Z,6.88
2023-04-14T04:20:47.150Z,6.85
2023-04-14T04:23:20.663Z,6.79
2023-04-14T04:25:50.324Z,6.72
2023-04-14T04:28:27.878Z,6.64
2023-04-14T04:30:56.705Z,6.59
2023-04-14T04:33:24.261Z,6.58
2023-04-14T04:35:53.178Z,6.56
2023-04-14T04:38:24.309Z,6.50
2023-04-14T04:40:52.749Z,6.47
2023-04-14T04:43:24.089Z,6.42
2023-04-14T04:46:18.537Z,6.40
2023-04-14T04:48:46.590Z,6.39
2023-04-14T04:51:13.613Z,6.45
2023-04-14T04:53:41.188Z,6.52
2023-04-14T04:56:08.741Z,6.51
2023-04-14T04:58:36.109Z,6.49
2023-04-14T05:01:10.778Z,6.49
2023-04-14T05:03:38.341Z,6.51
2023-04-14T05:06:06.206Z,6.52
2023-04-14T05:08:33.611Z,6.50
2023-04-14T05:11:01.469Z,6.53
2023-04-14T05:13:28.863Z,6.52
2023-04-14T05:16:06.629Z,6.51
2023-04-14T05:18:34.610Z,6.54
2023-04-14T05:21:09.283Z,6.61
2023-04-14T05:23:38.512Z,6.66
2023-04-14T05:26:26.943Z,6.74
2023-04-14T05:28:53.858Z,6.81
2023-04-14T05:31:20.847Z,6.83
2023-04-14T05:33:47.977Z,6.90
2023-04-14T05:36:15.299Z,6.99
2023-04-14T05:38:43.230Z,7.02
2023-04-14T05:41:12.306Z,7.02
2023-04-14T05:43:39.716Z,7.03
2023-04-14T05:46:07.074Z,7.04
2023-04-14T05:48:38.371Z,7.06
2023-04-14T05:51:05.664Z,7.05
2023-04-14T05:53:32.613Z,7.06
2023-04-14T05:55:59.622Z,7.04
2023-04-14T05:58:26.945Z,7.05
2023-04-14T06:00:53.954Z,7.02
2023-04-14T06:03:21.527Z,7.03
2023-04-14T06:05:49.008Z,7.07
2023-04-14T06:08:15.914Z,7.14
2023-04-14T06:10:43.089Z,7.18
2023-04-14T06:13:11.485Z,7.25
2023-04-14T06:15:38.710Z,7.29
2023-04-14T06:18:09.670Z,7.37
2023-04-14T06:20:39.686Z,7.39
2023-04-14T06:23:06.876Z,7.47
2023-04-14T06:25:37.246Z,7.53
2023-04-14T06:28:04.786Z,7.66
2023-04-14T06:30:34.721Z,8.27
2023-04-14T06:33:07.434Z,9.33
2023-04-14T06:35:35.805Z,10.12
2023-04-14T06:38:05.253Z,10.86
2023-04-14T06:40:35.608Z,12.09
2023-04-14T06:43:02.904Z,12.70
2023-04-14T06:45:29.818Z,12.61
2023-04-14T06:47:57.044Z,12.46
2023-04-14T06:50:24.588Z,13.28
2023-04-14T06:52:51.668Z,14.47
2023-04-14T06:55:19.447Z,15.11
2023-04-14T06:57:47.498Z,15.48
2023-04-14T07:00:17.316Z,16.48
2023-04-14T07:02:44.611Z,17.18
2023-04-14T07:05:14.821Z,17.37
2023-04-14T07:07:41.925Z,16.34
2023-04-14T07:10:13.161Z,14.88
2023-04-14T07:12:40.014Z,13.72
2023-04-14T07:15:07.797Z,13.11
2023-04-14T07:17:36.954Z,12.83
2023-04-14T07:20:05.614Z,12.26
2023-04-14T07:22:33.626Z,11.75
2023-04-14T07:25:00.851Z,11.47
2023-04-14T07:27:28.812Z,11.26
2023-04-14T07:29:56.168Z,11.05
2023-04-14T07:32:26.141Z,10.96
2023-04-14T07:34:53.771Z,10.90
2023-04-14T07:37:20.996Z,10.82
2023-04-14T07:39:48.166Z,10.72
2023-04-14T07:42:15.397Z,10.60
2023-04-14T07:44:42.233Z,10.50
2023-04-14T07:47:09.155Z,10.57
2023-04-14T07:49:36.596Z,10.61
2023-04-14T07:52:06.234Z,10.64
2023-04-14T07:54:33.540Z,10.70
2023-04-14T07:57:03.949Z,10.73
2023-04-14T07:59:34.935Z,10.80
2023-04-14T08:02:02.089Z,10.83
2023-04-14T08:04:29.243Z,10.85
2023-04-14T08:06:56.845Z,10.91
2023-04-14T08:09:24.090Z,10.94
2023-04-14T08:11:54.169Z,10.96
2023-04-14T08:14:21.471Z,11.01
2023-04-14T08:16:48.783Z,11.04
2023-04-14T08:19:18.475Z,11.07
2023-04-14T08:21:48.380Z,11.16
2023-04-14T08:24:18.879Z,11.31
2023-04-14T08:26:45.857Z,11.51
2023-04-14T08:29:12.930Z,11.71
2023-04-14T08:31:40.169Z,11.88
2023-04-14T08:34:07.642Z,12.01
2023-04-14T08:36:38.648Z,12.19
2023-04-14T08:39:06.104Z,12.42
2023-04-14T08:41:44.290Z,12.83
2023-04-14T08:44:14.612Z,13.46
2023-04-14T08:46:43.148Z,16.92
2023-04-14T08:49:16.243Z,22.56
2023-04-14T08:51:43.967Z,27.07
2023-04-14T08:54:12.467Z,30.14
2023-04-14T08:56:42.057Z,32.12
2023-04-14T08:59:33.725Z,33.56
2023-04-14T09:02:07.259Z,34.42
2023-04-14T09:04:35.926Z,35.19
2023-04-14T09:07:07.243Z,36.01
2023-04-14T09:09:34.397Z,36.17
2023-04-14T09:12:03.778Z,37.25
2023-04-14T09:14:33.372Z,38.41
2023-04-14T09:17:00.182Z,39.21
2023-04-14T09:19:29.121Z,39.65
2023-04-14T09:21:56.960Z,40.42
2023-04-14T09:24:32.032Z,40.57
2023-04-14T09:27:02.076Z,40.57
2023-04-14T09:29:29.712Z,41.17
2023-04-14T09:31:57.454Z,41.30
2023-04-14T09:34:24.865Z,42.03
2023-04-14T09:37:05.519Z,41.58
2023-04-14T09:39:39.222Z,41.61
2023-04-14T09:42:07.281Z,41.94
2023-04-14T09:44:59.065Z,42.23
2023-04-14T09:47:30.460Z,42.79
2023-04-14T09:49:59.669Z,43.92
2023-04-14T09:52:38.339Z,44.51
2023-04-14T09:55:15.366Z,45.09
2023-04-14T09:57:47.807Z,45.61
2023-04-14T10:00:18.225Z,46.40
2023-04-14T10:03:00.023Z,46.75
2023-04-14T10:05:29.069Z,47.07
2023-04-14T10:08:05.929Z,47.16
2023-04-14T10:10:33.455Z,47.77
2023-04-14T10:13:01.448Z,48.22
2023-04-14T10:15:29.233Z,48.13
2023-04-14T10:17:56.540Z,47.71
2023-04-14T10:20:24.922Z,47.77
2023-04-14T10:22:53.954Z,48.52
2023-04-14T10:25:21.537Z,48.84
2023-04-14T10:27:50.167Z,48.36
2023-04-14T10:30:20.958Z,48.54
2023-04-14T10:32:58.143Z,49.00
2023-04-14T10:35:41.804Z,49.23
2023-04-14T10:38:11.202Z,49.19
2023-04-14T10:40:52.674Z,45.14
2023-04-14T10:43:22.215Z,45.22
2023-04-14T10:45:56.519Z,46.83
2023-04-14T10:48:45.778Z,48.14
2023-04-14T10:51:13.290Z,46.80
2023-04-14T10:53:50.329Z,47.44
2023-04-14T10:56:21.686Z,49.04
2023-04-14T10:58:55.234Z,50.40
2023-04-14T11:01:32.311Z,49.26
2023-04-14T11:04:23.733Z,49.76
2023-04-14T11:06:55.527Z,50.46
2023-04-14T11:10:28.852Z,51.10
2023-04-14T11:14:36.388Z,51.44
2023-04-14T11:46:44.163Z,47.86
2023-04-14T12:05:36.201Z,46.09
2023-04-14T12:51:31.552Z,23.81
2023-04-14T12:57:41.381Z,22.82
2023-04-14T13:01:53.314Z,22.42
2023-04-14T13:17:34.592Z,21.59
2023-04-14T13:26:01.763Z,21.48
2023-04-14T13:49:28.847Z,21.02
2023-04-14T14:00:51.594Z,21.17
2023-04-14T14:34:23.825Z,19.15
2023-04-14T14:54:50.638Z,21.13
2023-04-14T15:19:10.581Z,22.32
2023-04-14T15:22:35.383Z,22.38
2023-04-14T15:30:00.457Z,22.43
2023-04-14T15:33:12.986Z,22.27
2023-04-14T15:36:30.233Z,21.99
2023-04-14T15:43:30.063Z,21.64
2023-04-14T15:46:22.880Z,21.84
2023-04-14T15:58:08.772Z,23.62
2023-04-14T16:05:03.209Z,22.69
2023-04-14T16:08:12.741Z,22.22
2023-04-14T16:10:41.379Z,21.94
2023-04-14T16:13:14.203Z,21.67
2023-04-14T16:15:51.004Z,21.51
2023-04-14T16:18:45.919Z,21.40
2023-04-14T16:21:37.437Z,21.27
2023-04-14T16:24:27.932Z,21.05
2023-04-14T16:27:00.843Z,20.73
2023-04-14T16:32:50.370Z,20.33
2023-04-14T16:35:54.294Z,20.31
2023-04-14T16:38:40.062Z,20.34
2023-04-14T16:41:16.724Z,20.26
2023-04-14T16:43:56.368Z,20.23
2023-04-14T16:46:26.126Z,20.16
2023-04-14T16:48:56.196Z,20.03
2023-04-14T16:51:29.428Z,19.95
2023-04-14T16:54:01.047Z,19.88
2023-04-14T16:56:31.697Z,19.84
2023-04-14T16:59:09.762Z,19.71
2023-04-14T17:01:38.909Z,19.52
2023-04-14T17:04:20.013Z,19.31
2023-04-14T17:07:17.293Z,19.19
2023-04-14T17:09:47.571Z,19.12
2023-04-14T17:12:33.973Z,19.10
2023-04-14T17:15:05.716Z,19.04
2023-04-14T17:17:36.857Z,18.96
2023-04-14T17:20:10.831Z,18.89
2023-04-14T17:22:42.683Z,18.80
2023-04-14T17:25:22.862Z,18.69
2023-04-14T17:28:06.837Z,18.59
2023-04-14T17:31:06.333Z,18.38
2023-04-14T17:34:04.805Z,18.16
2023-04-14T17:37:25.566Z,17.92
2023-04-14T17:40:05.304Z,17.72
2023-04-14T17:43:08.097Z,17.58
2023-04-14T17:45:44.785Z,17.43
2023-04-14T17:48:57.580Z,17.34
2023-04-14T17:51:33.241Z,17.18
2023-04-14T17:54:10.820Z,17.08
2023-04-14T17:57:16.828Z,16.99
2023-04-14T18:00:17.740Z,16.86
2023-04-14T18:03:06.129Z,16.66
2023-04-14T18:05:43.370Z,16.57
2023-04-14T18:11:18.857Z,16.40
2023-04-14T18:14:04.174Z,16.33
2023-04-14T18:17:49.061Z,16.19
2023-04-14T18:20:27.599Z,16.09
2023-04-14T18:23:10.611Z,16.04
2023-04-14T18:28:33.786Z,15.89
2023-04-14T18:31:16.266Z,15.83
2023-04-14T18:33:54.580Z,15.78
2023-04-14T18:36:28.275Z,15.73
2023-04-14T18:38:55.422Z,15.68
2023-04-14T18:41:25.571Z,15.67
2023-04-14T18:43:55.498Z,15.63
2023-04-14T18:46:23.283Z,15.60
2023-04-14T18:48:50.418Z,15.59
2023-04-14T18:51:18.067Z,15.56
2023-04-14T18:53:46.990Z,15.55
2023-04-14T18:56:14.469Z,15.53
2023-04-14T18:58:41.977Z,15.49
2023-04-14T19:01:12.133Z,15.46
2023-04-14T19:03:40.097Z,15.42
2023-04-14T19:06:10.097Z,15.37
2023-04-14T19:08:37.028Z,15.27
2023-04-14T19:11:03.759Z,15.20
2023-04-14T19:13:30.603Z,15.16
2023-04-14T19:16:05.883Z,15.11
2023-04-14T19:18:32.936Z,15.07
2023-04-14T19:20:59.796Z,15.05
2023-04-14T19:23:26.682Z,15.01
2023-04-14T19:25:54.185Z,14.97
2023-04-14T19:28:22.027Z,14.92
2023-04-14T19:30:49.253Z,14.86
2023-04-14T19:33:16.349Z,14.82
2023-04-14T19:35:46.810Z,14.77
2023-04-14T19:38:13.868Z,14.74
2023-04-14T19:40:48.201Z,14.71
2023-04-14T19:43:16.562Z,14.69
2023-04-14T19:45:53.347Z,14.66
2023-04-14T19:48:24.055Z,14.59
2023-04-14T19:50:55.270Z,14.53
2023-04-14T19:53:23.950Z,14.49
2023-04-14T19:55:56.901Z,14.48
2023-04-14T19:58:28.542Z,14.45
2023-04-14T20:00:58.898Z,14.44
2023-04-14T20:03:26.160Z,14.37
2023-04-14T20:05:54.809Z,14.34
2023-04-14T20:08:23.122Z,14.30
2023-04-14T20:10:52.069Z,14.28
2023-04-14T20:13:20.139Z,14.23
2023-04-14T20:15:48.879Z,14.20
2023-04-14T20:18:17.816Z,14.17
2023-04-14T20:20:46.056Z,14.12
2023-04-14T20:23:12.841Z,14.02
2023-04-14T20:25:39.725Z,13.96
2023-04-14T20:28:07.535Z,13.96
2023-04-14T20:30:34.570Z,13.91
2023-04-14T20:33:05.713Z,13.88
2023-04-14T20:35:36.199Z,13.85
2023-04-14T20:38:03.173Z,13.84
2023-04-14T20:40:30.255Z,13.78
2023-04-14T20:42:57.075Z,13.72
2023-04-14T20:45:24.000Z,13.68
2023-04-14T20:47:51.099Z,13.62
2023-04-14T20:50:19.193Z,13.57
2023-04-14T20:52:47.098Z,13.55
2023-04-14T20:55:14.573Z,13.51
2023-04-14T20:57:48.092Z,13.47
2023-04-14T21:00:16.623Z,13.40
2023-04-14T21:02:44.332Z,13.34
2023-04-14T21:05:12.805Z,13.32
2023-04-14T21:07:43.676Z,13.29
2023-04-14T21:10:11.993Z,13.25
2023-04-14T21:12:51.155Z,13.19
2023-04-14T21:15:50.320Z,13.16
2023-04-14T21:18:14.749Z,13.12
2023-04-14T21:20:43.507Z,13.11
2023-04-14T21:23:11.644Z,13.09
2023-04-14T21:25:38.854Z,13.09
2023-04-14T21:28:05.859Z,13.11
2023-04-14T21:30:32.661Z,13.08
2023-04-14T21:33:03.496Z,13.04
2023-04-14T21:35:31.714Z,13.00
2023-04-14T21:37:58.715Z,12.99
2023-04-14T21:40:25.485Z,12.97
2023-04-14T21:42:53.001Z,12.95
2023-04-14T21:45:28.855Z,12.94
2023-04-14T21:47:57.231Z,12.92
2023-04-14T21:50:24.841Z,12.91
2023-04-14T21:52:52.954Z,12.85
2023-04-14T21:55:19.800Z,12.80
2023-04-14T21:57:56.056Z,12.78
2023-04-14T22:00:24.227Z,12.76
2023-04-14T22:02:54.653Z,12.76
2023-04-14T22:05:23.088Z,12.76
2023-04-14T22:07:53.852Z,12.74
2023-04-14T22:10:32.310Z,12.77
2023-04-14T22:13:08.315Z,12.76
2023-04-14T22:15:35.621Z,12.72
2023-04-14T22:18:02.558Z,12.65
2023-04-14T22:20:29.886Z,12.58
2023-04-14T22:22:57.175Z,12.53
2023-04-14T22:25:24.551Z,12.48
2023-04-14T22:27:54.280Z,12.44
2023-04-14T22:30:21.672Z,12.37
2023-04-14T22:32:48.771Z,12.32
2023-04-14T22:35:16.562Z,12.28
2023-04-14T22:37:43.568Z,12.28
2023-04-14T22:40:12.199Z,12.28
2023-04-14T22:42:39.228Z,12.28
2023-04-14T22:45:08.803Z,12.25
2023-04-14T22:47:36.696Z,12.25
2023-04-14T22:50:04.014Z,12.23
2023-04-14T22:52:30.754Z,12.20
2023-04-14T22:54:58.034Z,12.17
2023-04-14T22:57:26.728Z,12.13
2023-04-14T22:59:56.608Z,12.09
2023-04-14T23:02:25.111Z,12.06
2023-04-14T23:04:52.107Z,11.98
2023-04-14T23:07:19.894Z,11.90
2023-04-14T23:09:50.136Z,11.79
2023-04-14T23:12:17.712Z,11.76
2023-04-14T23:14:50.938Z,11.77
2023-04-14T23:17:25.580Z,11.75
2023-04-14T23:20:00.140Z,11.76
2023-04-14T23:22:28.427Z,11.81
2023-04-14T23:24:55.705Z,11.79
2023-04-14T23:27:23.525Z,11.75
2023-04-14T23:29:53.790Z,11.71
2023-04-14T23:32:20.938Z,11.66
2023-04-14T23:34:48.604Z,11.67
2023-04-14T23:37:15.790Z,11.71
2023-04-14T23:39:43.153Z,11.69
2023-04-14T23:42:10.507Z,11.63
2023-04-14T23:44:41.628Z,11.56
2023-04-14T23:47:10.669Z,11.50
2023-04-14T23:49:37.838Z,11.46
2023-04-14T23:52:08.339Z,11.39
2023-04-14T23:54:38.820Z,11.32
2023-04-14T23:57:06.933Z,11.26
2023-04-14T23:59:34.327Z,11.20
